Antrim, New Hampshire
Current Conditions -  °F | °C
As of 1:52 PM on Saturday 20 Dec 2014 (Local Time) from KAFN Reporting Station
Broken Clouds Broken Clouds  
Wind Chill: 32°   Ceiling: 2800
Heat Index: 32°   Visibility: 10mi
Dew Point: 17°   Wind: 3mph
Humidity: 54%   Direction: 10°N
Pressure: 30.22"   Gusts: NA
Location:  43.03°N, 71.95°W
Report Text: KAFN 201852Z AUTO 01003KT 10SM BKN028 00/M08 A3022 RMK AO2 SLP254 T00001083
Loading
Personal Weather Stations






























Interactive Weather Map New forecast layout! Learn more

10-Day Weather Forecast

Advertisements
Track Severe Weather on mobile